sensor_id;sensor_type;location;lat;lon;timestamp;P1;durP1;ratioP1;P2;durP2;ratioP2
23242;SDS011;11790;49.578;11.214;2023-04-25T00:04:14;8.32;;;5.45;;
23242;SDS011;11790;49.578;11.214;2023-04-25T00:09:14;7.30;;;5.07;;
23242;SDS011;11790;49.578;11.214;2023-04-25T00:14:15;9.40;;;5.78;;
23242;SDS011;11790;49.578;11.214;2023-04-25T00:19:16;8.32;;;5.80;;
23242;SDS011;11790;49.578;11.214;2023-04-25T00:24:17;7.43;;;5.20;;
23242;SDS011;11790;49.578;11.214;2023-04-25T00:29:17;8.17;;;5.30;;
23242;SDS011;11790;49.578;11.214;2023-04-25T00:34:17;7.30;;;5.05;;
23242;SDS011;11790;49.578;11.214;2023-04-25T00:39:17;6.95;;;5.30;;
23242;SDS011;11790;49.578;11.214;2023-04-25T00:44:17;7.95;;;5.90;;
23242;SDS011;11790;49.578;11.214;2023-04-25T00:49:18;9.27;;;6.30;;
23242;SDS011;11790;49.578;11.214;2023-04-25T00:54:18;9.15;;;5.80;;
23242;SDS011;11790;49.578;11.214;2023-04-25T00:59:19;9.77;;;6.55;;
23242;SDS011;11790;49.578;11.214;2023-04-25T01:04:19;9.43;;;6.32;;
23242;SDS011;11790;49.578;11.214;2023-04-25T01:09:20;10.70;;;7.15;;
23242;SDS011;11790;49.578;11.214;2023-04-25T01:14:20;9.68;;;6.63;;
23242;SDS011;11790;49.578;11.214;2023-04-25T01:19:20;10.35;;;6.72;;
23242;SDS011;11790;49.578;11.214;2023-04-25T01:24:21;10.82;;;6.38;;
23242;SDS011;11790;49.578;11.214;2023-04-25T01:29:21;9.38;;;5.53;;
23242;SDS011;11790;49.578;11.214;2023-04-25T01:34:21;10.57;;;5.68;;
23242;SDS011;11790;49.578;11.214;2023-04-25T01:39:22;9.45;;;5.55;;
23242;SDS011;11790;49.578;11.214;2023-04-25T01:44:22;8.75;;;6.18;;
23242;SDS011;11790;49.578;11.214;2023-04-25T01:49:22;8.88;;;5.25;;
23242;SDS011;11790;49.578;11.214;2023-04-25T01:54:23;8.95;;;5.80;;
23242;SDS011;11790;49.578;11.214;2023-04-25T01:59:23;10.35;;;6.38;;
23242;SDS011;11790;49.578;11.214;2023-04-25T02:04:23;10.43;;;5.53;;
23242;SDS011;11790;49.578;11.214;2023-04-25T02:09:24;7.87;;;5.50;;
23242;SDS011;11790;49.578;11.214;2023-04-25T02:14:24;9.10;;;5.68;;
23242;SDS011;11790;49.578;11.214;2023-04-25T02:19:24;8.85;;;5.63;;
23242;SDS011;11790;49.578;11.214;2023-04-25T02:24:24;9.73;;;5.28;;
23242;SDS011;11790;49.578;11.214;2023-04-25T02:29:25;7.28;;;5.10;;
23242;SDS011;11790;49.578;11.214;2023-04-25T02:34:25;7.35;;;4.80;;
23242;SDS011;11790;49.578;11.214;2023-04-25T02:39:25;6.95;;;5.05;;
23242;SDS011;11790;49.578;11.214;2023-04-25T02:44:27;7.13;;;4.25;;
23242;SDS011;11790;49.578;11.214;2023-04-25T02:49:27;6.35;;;4.30;;
23242;SDS011;11790;49.578;11.214;2023-04-25T02:54:27;8.40;;;4.80;;
23242;SDS011;11790;49.578;11.214;2023-04-25T02:59:27;6.57;;;5.00;;
23242;SDS011;11790;49.578;11.214;2023-04-25T03:04:27;7.05;;;4.70;;
23242;SDS011;11790;49.578;11.214;2023-04-25T03:09:28;7.90;;;4.80;;
23242;SDS011;11790;49.578;11.214;2023-04-25T03:14:28;7.32;;;4.75;;
23242;SDS011;11790;49.578;11.214;2023-04-25T03:19:28;9.00;;;5.32;;
23242;SDS011;11790;49.578;11.214;2023-04-25T03:24:28;8.38;;;5.80;;
23242;SDS011;11790;49.578;11.214;2023-04-25T03:29:28;9.05;;;5.97;;
23242;SDS011;11790;49.578;11.214;2023-04-25T03:34:29;9.73;;;6.30;;
23242;SDS011;11790;49.578;11.214;2023-04-25T03:39:29;8.98;;;6.20;;
23242;SDS011;11790;49.578;11.214;2023-04-25T03:44:29;10.48;;;6.30;;
23242;SDS011;11790;49.578;11.214;2023-04-25T03:49:30;9.02;;;6.40;;
23242;SDS011;11790;49.578;11.214;2023-04-25T03:54:30;10.20;;;6.72;;
23242;SDS011;11790;49.578;11.214;2023-04-25T03:59:30;10.18;;;6.82;;
23242;SDS011;11790;49.578;11.214;2023-04-25T04:04:31;12.15;;;7.70;;
23242;SDS011;11790;49.578;11.214;2023-04-25T04:09:31;14.80;;;8.60;;
23242;SDS011;11790;49.578;11.214;2023-04-25T04:14:31;12.55;;;8.98;;
23242;SDS011;11790;49.578;11.214;2023-04-25T04:19:31;13.18;;;8.93;;
23242;SDS011;11790;49.578;11.214;2023-04-25T04:24:31;15.38;;;9.55;;
23242;SDS011;11790;49.578;11.214;2023-04-25T04:29:32;14.70;;;9.02;;
23242;SDS011;11790;49.578;11.214;2023-04-25T04:34:33;12.77;;;8.60;;
23242;SDS011;11790;49.578;11.214;2023-04-25T04:39:33;14.43;;;8.93;;
23242;SDS011;11790;49.578;11.214;2023-04-25T04:44:34;10.95;;;7.63;;
23242;SDS011;11790;49.578;11.214;2023-04-25T04:49:35;12.75;;;8.13;;
23242;SDS011;11790;49.578;11.214;2023-04-25T04:54:36;12.75;;;7.72;;
23242;SDS011;11790;49.578;11.214;2023-04-25T04:59:36;10.32;;;7.03;;
23242;SDS011;11790;49.578;11.214;2023-04-25T05:04:36;13.02;;;8.10;;
23242;SDS011;11790;49.578;11.214;2023-04-25T05:09:36;11.15;;;7.07;;
23242;SDS011;11790;49.578;11.214;2023-04-25T05:14:37;9.55;;;7.10;;
23242;SDS011;11790;49.578;11.214;2023-04-25T05:19:37;12.57;;;7.90;;
23242;SDS011;11790;49.578;11.214;2023-04-25T05:24:37;11.23;;;7.90;;
23242;SDS011;11790;49.578;11.214;2023-04-25T05:29:38;11.20;;;7.32;;
23242;SDS011;11790;49.578;11.214;2023-04-25T05:34:38;11.20;;;7.60;;
23242;SDS011;11790;49.578;11.214;2023-04-25T05:39:38;10.13;;;6.85;;
23242;SDS011;11790;49.578;11.214;2023-04-25T05:44:38;11.88;;;7.18;;
23242;SDS011;11790;49.578;11.214;2023-04-25T05:49:38;9.35;;;5.90;;
23242;SDS011;11790;49.578;11.214;2023-04-25T05:54:38;7.93;;;5.65;;
23242;SDS011;11790;49.578;11.214;2023-04-25T05:59:39;6.68;;;5.05;;
23242;SDS011;11790;49.578;11.214;2023-04-25T06:04:39;7.28;;;4.80;;
23242;SDS011;11790;49.578;11.214;2023-04-25T06:09:39;8.30;;;5.47;;
23242;SDS011;11790;49.578;11.214;2023-04-25T06:14:40;7.32;;;4.85;;
23242;SDS011;11790;49.578;11.214;2023-04-25T06:19:40;8.23;;;5.00;;
23242;SDS011;11790;49.578;11.214;2023-04-25T06:24:40;6.43;;;4.85;;
23242;SDS011;11790;49.578;11.214;2023-04-25T06:29:40;7.95;;;5.65;;
23242;SDS011;11790;49.578;11.214;2023-04-25T06:34:41;7.68;;;5.45;;
23242;SDS011;11790;49.578;11.214;2023-04-25T06:39:41;8.82;;;5.82;;
23242;SDS011;11790;49.578;11.214;2023-04-25T06:44:41;10.13;;;6.40;;
23242;SDS011;11790;49.578;11.214;2023-04-25T06:49:41;10.10;;;6.82;;
23242;SDS011;11790;49.578;11.214;2023-04-25T06:54:41;12.93;;;7.80;;
23242;SDS011;11790;49.578;11.214;2023-04-25T06:59:41;11.43;;;7.68;;
23242;SDS011;11790;49.578;11.214;2023-04-25T07:04:42;15.18;;;9.75;;
23242;SDS011;11790;49.578;11.214;2023-04-25T07:09:42;14.25;;;9.85;;
23242;SDS011;11790;49.578;11.214;2023-04-25T07:14:42;15.88;;;10.77;;
23242;SDS011;11790;49.578;11.214;2023-04-25T07:19:42;17.25;;;10.98;;
23242;SDS011;11790;49.578;11.214;2023-04-25T07:24:43;15.35;;;9.27;;
23242;SDS011;11790;49.578;11.214;2023-04-25T07:29:47;11.80;;;7.65;;
23242;SDS011;11790;49.578;11.214;2023-04-25T07:34:47;12.10;;;7.53;;
23242;SDS011;11790;49.578;11.214;2023-04-25T07:39:47;11.20;;;7.00;;
23242;SDS011;11790;49.578;11.214;2023-04-25T07:44:48;12.32;;;6.65;;
23242;SDS011;11790;49.578;11.214;2023-04-25T07:49:48;8.80;;;5.65;;
23242;SDS011;11790;49.578;11.214;2023-04-25T07:54:48;8.93;;;5.53;;
23242;SDS011;11790;49.578;11.214;2023-04-25T07:59:48;7.95;;;5.72;;
23242;SDS011;11790;49.578;11.214;2023-04-25T08:04:48;9.15;;;5.93;;
23242;SDS011;11790;49.578;11.214;2023-04-25T08:09:49;9.45;;;5.90;;
23242;SDS011;11790;49.578;11.214;2023-04-25T08:14:49;10.13;;;5.85;;
23242;SDS011;11790;49.578;11.214;2023-04-25T08:19:49;9.75;;;6.13;;
23242;SDS011;11790;49.578;11.214;2023-04-25T08:24:50;9.38;;;5.60;;
23242;SDS011;11790;49.578;11.214;2023-04-25T08:29:50;9.10;;;6.07;;
23242;SDS011;11790;49.578;11.214;2023-04-25T08:34:50;11.20;;;6.25;;
23242;SDS011;11790;49.578;11.214;2023-04-25T08:39:53;8.52;;;5.82;;
23242;SDS011;11790;49.578;11.214;2023-04-25T08:44:56;10.13;;;6.05;;
23242;SDS011;11790;49.578;11.214;2023-04-25T08:49:56;10.20;;;5.55;;
23242;SDS011;11790;49.578;11.214;2023-04-25T08:54:56;12.27;;;6.45;;
23242;SDS011;11790;49.578;11.214;2023-04-25T08:59:57;8.85;;;6.10;;
23242;SDS011;11790;49.578;11.214;2023-04-25T09:04:57;9.93;;;6.30;;
23242;SDS011;11790;49.578;11.214;2023-04-25T09:09:57;9.90;;;6.10;;
23242;SDS011;11790;49.578;11.214;2023-04-25T09:15:04;11.73;;;5.90;;
23242;SDS011;11790;49.578;11.214;2023-04-25T09:20:08;11.90;;;6.07;;
23242;SDS011;11790;49.578;11.214;2023-04-25T09:25:12;8.50;;;4.82;;
23242;SDS011;11790;49.578;11.214;2023-04-25T09:30:15;7.65;;;5.07;;
23242;SDS011;11790;49.578;11.214;2023-04-25T09:35:24;8.57;;;4.75;;
23242;SDS011;11790;49.578;11.214;2023-04-25T09:40:27;9.25;;;5.03;;
23242;SDS011;11790;49.578;11.214;2023-04-25T09:45:30;7.78;;;4.55;;
23242;SDS011;11790;49.578;11.214;2023-04-25T09:50:31;8.38;;;4.90;;
23242;SDS011;11790;49.578;11.214;2023-04-25T09:55:32;8.35;;;4.65;;
23242;SDS011;11790;49.578;11.214;2023-04-25T10:00:33;6.80;;;4.10;;
23242;SDS011;11790;49.578;11.214;2023-04-25T10:05:35;6.75;;;4.15;;
23242;SDS011;11790;49.578;11.214;2023-04-25T10:10:35;6.38;;;3.53;;
23242;SDS011;11790;49.578;11.214;2023-04-25T10:15:38;4.85;;;3.30;;
23242;SDS011;11790;49.578;11.214;2023-04-25T10:20:38;5.53;;;3.33;;
23242;SDS011;11790;49.578;11.214;2023-04-25T10:25:39;5.85;;;3.25;;
23242;SDS011;11790;49.578;11.214;2023-04-25T10:36:04;5.75;;;1.65;;
23242;SDS011;11790;49.578;11.214;2023-04-25T10:41:08;4.85;;;1.80;;
23242;SDS011;11790;49.578;11.214;2023-04-25T10:56:27;5.13;;;2.80;;
23242;SDS011;11790;49.578;11.214;2023-04-25T11:01:28;6.57;;;3.55;;
23242;SDS011;11790;49.578;11.214;2023-04-25T11:06:45;5.30;;;3.28;;
23242;SDS011;11790;49.578;11.214;2023-04-25T11:11:53;4.72;;;3.55;;
23242;SDS011;11790;49.578;11.214;2023-04-25T11:16:54;5.45;;;3.40;;
23242;SDS011;11790;49.578;11.214;2023-04-25T11:21:56;5.43;;;2.83;;
23242;SDS011;11790;49.578;11.214;2023-04-25T11:26:59;4.90;;;2.40;;
23242;SDS011;11790;49.578;11.214;2023-04-25T11:32:00;6.85;;;2.15;;
23242;SDS011;11790;49.578;11.214;2023-04-25T11:37:01;4.35;;;2.10;;
23242;SDS011;11790;49.578;11.214;2023-04-25T11:42:01;2.63;;;1.70;;
23242;SDS011;11790;49.578;11.214;2023-04-25T11:47:03;2.30;;;1.40;;
23242;SDS011;11790;49.578;11.214;2023-04-25T11:52:05;3.38;;;1.75;;
23242;SDS011;11790;49.578;11.214;2023-04-25T11:57:06;2.65;;;1.52;;
23242;SDS011;11790;49.578;11.214;2023-04-25T12:02:06;2.42;;;1.15;;
23242;SDS011;11790;49.578;11.214;2023-04-25T12:07:09;1.30;;;1.20;;
23242;SDS011;11790;49.578;11.214;2023-04-25T12:12:09;1.42;;;1.10;;
23242;SDS011;11790;49.578;11.214;2023-04-25T12:17:10;2.05;;;1.35;;
23242;SDS011;11790;49.578;11.214;2023-04-25T12:22:18;1.85;;;1.38;;
23242;SDS011;11790;49.578;11.214;2023-04-25T12:27:20;2.53;;;1.55;;
23242;SDS011;11790;49.578;11.214;2023-04-25T12:32:20;2.08;;;1.40;;
23242;SDS011;11790;49.578;11.214;2023-04-25T12:37:20;2.53;;;1.50;;
23242;SDS011;11790;49.578;11.214;2023-04-25T12:42:21;3.30;;;1.60;;
23242;SDS011;11790;49.578;11.214;2023-04-25T12:47:21;2.33;;;1.50;;
23242;SDS011;11790;49.578;11.214;2023-04-25T12:52:21;2.05;;;1.40;;
23242;SDS011;11790;49.578;11.214;2023-04-25T12:57:21;2.90;;;1.60;;
23242;SDS011;11790;49.578;11.214;2023-04-25T13:02:21;3.13;;;1.70;;
23242;SDS011;11790;49.578;11.214;2023-04-25T13:07:22;1.95;;;1.42;;
23242;SDS011;11790;49.578;11.214;2023-04-25T13:12:22;2.13;;;1.67;;
23242;SDS011;11790;49.578;11.214;2023-04-25T13:17:22;4.07;;;2.00;;
23242;SDS011;11790;49.578;11.214;2023-04-25T13:22:22;5.13;;;1.80;;
23242;SDS011;11790;49.578;11.214;2023-04-25T13:27:22;3.47;;;1.70;;
23242;SDS011;11790;49.578;11.214;2023-04-25T13:32:23;2.13;;;1.70;;
23242;SDS011;11790;49.578;11.214;2023-04-25T13:37:23;2.95;;;1.90;;
23242;SDS011;11790;49.578;11.214;2023-04-25T13:42:24;4.07;;;1.90;;
23242;SDS011;11790;49.578;11.214;2023-04-25T13:47:25;3.05;;;2.08;;
23242;SDS011;11790;49.578;11.214;2023-04-25T13:52:25;2.65;;;1.95;;
23242;SDS011;11790;49.578;11.214;2023-04-25T13:57:25;4.07;;;2.03;;
23242;SDS011;11790;49.578;11.214;2023-04-25T14:02:25;2.42;;;1.83;;
23242;SDS011;11790;49.578;11.214;2023-04-25T14:07:25;3.67;;;1.98;;
23242;SDS011;11790;49.578;11.214;2023-04-25T14:12:26;3.15;;;2.15;;
23242;SDS011;11790;49.578;11.214;2023-04-25T14:17:26;3.15;;;2.00;;
23242;SDS011;11790;49.578;11.214;2023-04-25T14:22:26;4.32;;;2.20;;
23242;SDS011;11790;49.578;11.214;2023-04-25T14:27:26;3.42;;;2.05;;
23242;SDS011;11790;49.578;11.214;2023-04-25T14:32:27;3.50;;;2.40;;
23242;SDS011;11790;49.578;11.214;2023-04-25T14:37:27;4.75;;;2.20;;
23242;SDS011;11790;49.578;11.214;2023-04-25T14:42:28;4.38;;;2.15;;
23242;SDS011;11790;49.578;11.214;2023-04-25T14:47:28;3.83;;;2.75;;
23242;SDS011;11790;49.578;11.214;2023-04-25T14:52:28;6.85;;;2.78;;
23242;SDS011;11790;49.578;11.214;2023-04-25T14:57:28;4.82;;;2.55;;
23242;SDS011;11790;49.578;11.214;2023-04-25T15:02:28;4.03;;;2.53;;
23242;SDS011;11790;49.578;11.214;2023-04-25T15:07:29;4.78;;;2.47;;
23242;SDS011;11790;49.578;11.214;2023-04-25T15:12:29;5.28;;;2.67;;
23242;SDS011;11790;49.578;11.214;2023-04-25T15:17:30;4.15;;;2.30;;
23242;SDS011;11790;49.578;11.214;2023-04-25T15:22:31;4.07;;;2.60;;
23242;SDS011;11790;49.578;11.214;2023-04-25T15:27:31;5.10;;;2.50;;
23242;SDS011;11790;49.578;11.214;2023-04-25T15:32:31;6.47;;;2.50;;
23242;SDS011;11790;49.578;11.214;2023-04-25T15:37:31;4.72;;;2.40;;
23242;SDS011;11790;49.578;11.214;2023-04-25T15:42:32;2.80;;;2.20;;
23242;SDS011;11790;49.578;11.214;2023-04-25T15:47:32;3.63;;;1.98;;
23242;SDS011;11790;49.578;11.214;2023-04-25T15:52:33;4.00;;;2.45;;
23242;SDS011;11790;49.578;11.214;2023-04-25T15:57:33;4.05;;;2.22;;
23242;SDS011;11790;49.578;11.214;2023-04-25T16:02:34;3.30;;;2.30;;
23242;SDS011;11790;49.578;11.214;2023-04-25T16:07:34;3.97;;;2.63;;
23242;SDS011;11790;49.578;11.214;2023-04-25T16:12:34;3.15;;;2.20;;
23242;SDS011;11790;49.578;11.214;2023-04-25T16:17:35;4.18;;;2.38;;
23242;SDS011;11790;49.578;11.214;2023-04-25T16:22:36;5.32;;;2.60;;
23242;SDS011;11790;49.578;11.214;2023-04-25T16:27:37;3.70;;;2.22;;
23242;SDS011;11790;49.578;11.214;2023-04-25T16:32:38;4.93;;;2.45;;
23242;SDS011;11790;49.578;11.214;2023-04-25T16:37:39;5.53;;;2.70;;
23242;SDS011;11790;49.578;11.214;2023-04-25T16:42:39;6.07;;;2.50;;
23242;SDS011;11790;49.578;11.214;2023-04-25T16:47:39;6.30;;;2.60;;
23242;SDS011;11790;49.578;11.214;2023-04-25T16:52:40;4.85;;;2.28;;
23242;SDS011;11790;49.578;11.214;2023-04-25T16:57:40;5.50;;;2.75;;
23242;SDS011;11790;49.578;11.214;2023-04-25T17:02:40;5.15;;;3.00;;
23242;SDS011;11790;49.578;11.214;2023-04-25T17:07:40;6.65;;;2.60;;
23242;SDS011;11790;49.578;11.214;2023-04-25T17:12:40;5.40;;;2.47;;
23242;SDS011;11790;49.578;11.214;2023-04-25T17:17:41;7.88;;;2.30;;
23242;SDS011;11790;49.578;11.214;2023-04-25T17:22:41;6.93;;;3.25;;
23242;SDS011;11790;49.578;11.214;2023-04-25T17:27:42;6.25;;;2.70;;
23242;SDS011;11790;49.578;11.214;2023-04-25T17:32:42;6.50;;;3.88;;
23242;SDS011;11790;49.578;11.214;2023-04-25T17:37:42;6.00;;;3.80;;
23242;SDS011;11790;49.578;11.214;2023-04-25T17:42:44;12.55;;;4.78;;
23242;SDS011;11790;49.578;11.214;2023-04-25T17:47:45;9.40;;;3.65;;
23242;SDS011;11790;49.578;11.214;2023-04-25T17:52:45;11.15;;;3.42;;
23242;SDS011;11790;49.578;11.214;2023-04-25T17:57:47;7.35;;;2.70;;
23242;SDS011;11790;49.578;11.214;2023-04-25T18:02:47;10.43;;;2.95;;
23242;SDS011;11790;49.578;11.214;2023-04-25T18:07:50;10.70;;;3.08;;
23242;SDS011;11790;49.578;11.214;2023-04-25T18:12:50;5.50;;;2.88;;
23242;SDS011;11790;49.578;11.214;2023-04-25T18:17:50;7.30;;;2.85;;
23242;SDS011;11790;49.578;11.214;2023-04-25T18:22:50;8.65;;;3.35;;
23242;SDS011;11790;49.578;11.214;2023-04-25T18:27:51;7.53;;;3.05;;
23242;SDS011;11790;49.578;11.214;2023-04-25T18:32:51;11.00;;;3.38;;
23242;SDS011;11790;49.578;11.214;2023-04-25T18:37:51;6.47;;;3.10;;
23242;SDS011;11790;49.578;11.214;2023-04-25T18:42:52;10.10;;;3.08;;
23242;SDS011;11790;49.578;11.214;2023-04-25T18:47:52;6.28;;;2.83;;
23242;SDS011;11790;49.578;11.214;2023-04-25T18:52:53;7.28;;;3.08;;
23242;SDS011;11790;49.578;11.214;2023-04-25T18:57:53;11.98;;;3.30;;
23242;SDS011;11790;49.578;11.214;2023-04-25T19:02:54;8.55;;;3.50;;
23242;SDS011;11790;49.578;11.214;2023-04-25T19:07:57;10.07;;;3.20;;
23242;SDS011;11790;49.578;11.214;2023-04-25T19:12:57;6.85;;;2.85;;
23242;SDS011;11790;49.578;11.214;2023-04-25T19:17:57;10.25;;;3.60;;
23242;SDS011;11790;49.578;11.214;2023-04-25T19:22:57;10.82;;;3.90;;
23242;SDS011;11790;49.578;11.214;2023-04-25T19:27:57;12.48;;;4.78;;
23242;SDS011;11790;49.578;11.214;2023-04-25T19:32:59;11.13;;;4.78;;
23242;SDS011;11790;49.578;11.214;2023-04-25T19:38:00;12.43;;;4.15;;
23242;SDS011;11790;49.578;11.214;2023-04-25T19:43:00;11.48;;;4.18;;
23242;SDS011;11790;49.578;11.214;2023-04-25T19:48:01;21.55;;;7.30;;
23242;SDS011;11790;49.578;11.214;2023-04-25T19:53:03;15.65;;;6.07;;
23242;SDS011;11790;49.578;11.214;2023-04-25T19:58:03;12.73;;;6.53;;
23242;SDS011;11790;49.578;11.214;2023-04-25T20:03:05;16.08;;;6.30;;
23242;SDS011;11790;49.578;11.214;2023-04-25T20:08:06;13.70;;;5.50;;
23242;SDS011;11790;49.578;11.214;2023-04-25T20:13:06;11.55;;;6.28;;
23242;SDS011;11790;49.578;11.214;2023-04-25T20:18:06;16.88;;;6.13;;
23242;SDS011;11790;49.578;11.214;2023-04-25T20:23:06;10.90;;;5.45;;
23242;SDS011;11790;49.578;11.214;2023-04-25T20:28:07;15.02;;;5.78;;
23242;SDS011;11790;49.578;11.214;2023-04-25T20:33:07;10.73;;;4.47;;
23242;SDS011;11790;49.578;11.214;2023-04-25T20:38:08;11.70;;;4.22;;
23242;SDS011;11790;49.578;11.214;2023-04-25T20:43:08;12.00;;;3.95;;
23242;SDS011;11790;49.578;11.214;2023-04-25T20:48:10;11.90;;;4.25;;
23242;SDS011;11790;49.578;11.214;2023-04-25T20:53:11;11.50;;;4.43;;
23242;SDS011;11790;49.578;11.214;2023-04-25T20:58:11;12.55;;;4.18;;
23242;SDS011;11790;49.578;11.214;2023-04-25T21:03:12;11.18;;;4.32;;
23242;SDS011;11790;49.578;11.214;2023-04-25T21:08:12;9.80;;;3.97;;
23242;SDS011;11790;49.578;11.214;2023-04-25T21:13:12;8.10;;;3.90;;
23242;SDS011;11790;49.578;11.214;2023-04-25T21:18:12;6.78;;;3.83;;
23242;SDS011;11790;49.578;11.214;2023-04-25T21:23:13;11.50;;;4.32;;
23242;SDS011;11790;49.578;11.214;2023-04-25T21:28:13;8.45;;;4.20;;
23242;SDS011;11790;49.578;11.214;2023-04-25T21:33:13;11.68;;;4.78;;
23242;SDS011;11790;49.578;11.214;2023-04-25T21:38:13;13.40;;;5.72;;
23242;SDS011;11790;49.578;11.214;2023-04-25T21:43:14;11.88;;;6.30;;
23242;SDS011;11790;49.578;11.214;2023-04-25T21:48:14;11.95;;;6.20;;
23242;SDS011;11790;49.578;11.214;2023-04-25T21:53:15;12.43;;;6.07;;
23242;SDS011;11790;49.578;11.214;2023-04-25T21:58:15;15.80;;;5.95;;
23242;SDS011;11790;49.578;11.214;2023-04-25T22:03:15;13.27;;;5.38;;
23242;SDS011;11790;49.578;11.214;2023-04-25T22:08:16;12.95;;;5.47;;
23242;SDS011;11790;49.578;11.214;2023-04-25T22:13:16;12.98;;;5.50;;
23242;SDS011;11790;49.578;11.214;2023-04-25T22:18:16;10.30;;;5.07;;
23242;SDS011;11790;49.578;11.214;2023-04-25T22:23:17;12.43;;;5.28;;
23242;SDS011;11790;49.578;11.214;2023-04-25T22:28:18;12.98;;;5.43;;
23242;SDS011;11790;49.578;11.214;2023-04-25T22:33:18;10.35;;;5.30;;
23242;SDS011;11790;49.578;11.214;2023-04-25T22:38:18;10.40;;;5.28;;
23242;SDS011;11790;49.578;11.214;2023-04-25T22:43:19;13.50;;;5.30;;
23242;SDS011;11790;49.578;11.214;2023-04-25T22:48:19;10.43;;;4.80;;
23242;SDS011;11790;49.578;11.214;2023-04-25T22:53:20;13.60;;;5.20;;
23242;SDS011;11790;49.578;11.214;2023-04-25T22:58:20;11.80;;;4.85;;
23242;SDS011;11790;49.578;11.214;2023-04-25T23:03:20;8.82;;;4.75;;
23242;SDS011;11790;49.578;11.214;2023-04-25T23:08:21;11.82;;;5.03;;
23242;SDS011;11790;49.578;11.214;2023-04-25T23:13:21;12.27;;;5.50;;
23242;SDS011;11790;49.578;11.214;2023-04-25T23:18:21;15.03;;;5.27;;
23242;SDS011;11790;49.578;11.214;2023-04-25T23:23:22;11.18;;;5.00;;
23242;SDS011;11790;49.578;11.214;2023-04-25T23:28:22;12.35;;;4.68;;
23242;SDS011;11790;49.578;11.214;2023-04-25T23:33:22;9.55;;;5.50;;
23242;SDS011;11790;49.578;11.214;2023-04-25T23:38:22;14.57;;;5.30;;
23242;SDS011;11790;49.578;11.214;2023-04-25T23:43:23;9.05;;;4.97;;
23242;SDS011;11790;49.578;11.214;2023-04-25T23:48:23;9.95;;;5.10;;
23242;SDS011;11790;49.578;11.214;2023-04-25T23:53:23;7.47;;;4.20;;
23242;SDS011;11790;49.578;11.214;2023-04-25T23:58:23;11.73;;;5.35;;
